sensor_id;sensor_type;location;lat;lon;timestamp;temperature;humidity
13898;DHT22;7019;50.766;4.474;2022-10-17T00:01:45;11.60;99.90
13898;DHT22;7019;50.766;4.474;2022-10-17T00:04:12;11.60;99.90
13898;DHT22;7019;50.766;4.474;2022-10-17T00:06:39;11.60;99.90
13898;DHT22;7019;50.766;4.474;2022-10-17T00:09:07;11.60;99.90
13898;DHT22;7019;50.766;4.474;2022-10-17T00:11:35;11.60;99.90
13898;DHT22;7019;50.766;4.474;2022-10-17T00:14:03;11.60;99.90
13898;DHT22;7019;50.766;4.474;2022-10-17T00:16:33;11.70;99.90
13898;DHT22;7019;50.766;4.474;2022-10-17T00:19:01;11.70;99.90
13898;DHT22;7019;50.766;4.474;2022-10-17T00:21:29;11.70;99.90
13898;DHT22;7019;50.766;4.474;2022-10-17T00:23:56;11.60;99.90
13898;DHT22;7019;50.766;4.474;2022-10-17T00:26:23;11.60;99.90
13898;DHT22;7019;50.766;4.474;2022-10-17T00:28:51;11.60;99.90
13898;DHT22;7019;50.766;4.474;2022-10-17T00:31:21;11.60;99.90
13898;DHT22;7019;50.766;4.474;2022-10-17T00:33:48;11.60;99.90
13898;DHT22;7019;50.766;4.474;2022-10-17T00:36:17;11.60;99.90
13898;DHT22;7019;50.766;4.474;2022-10-17T00:38:45;11.60;99.90
13898;DHT22;7019;50.766;4.474;2022-10-17T00:41:15;11.60;99.90
13898;DHT22;7019;50.766;4.474;2022-10-17T00:43:51;11.70;99.90
13898;DHT22;7019;50.766;4.474;2022-10-17T00:46:21;11.70;99.90
13898;DHT22;7019;50.766;4.474;2022-10-17T00:48:50;11.70;99.90
13898;DHT22;7019;50.766;4.474;2022-10-17T00:51:22;11.70;99.90
13898;DHT22;7019;50.766;4.474;2022-10-17T00:53:50;11.70;99.90
13898;DHT22;7019;50.766;4.474;2022-10-17T00:56:18;11.70;99.90
13898;DHT22;7019;50.766;4.474;2022-10-17T00:58:46;11.80;99.90
13898;DHT22;7019;50.766;4.474;2022-10-17T01:01:14;11.80;99.90
13898;DHT22;7019;50.766;4.474;2022-10-17T01:03:42;11.80;99.90
13898;DHT22;7019;50.766;4.474;2022-10-17T01:06:09;11.80;99.90
13898;DHT22;7019;50.766;4.474;2022-10-17T01:08:37;11.80;99.90
13898;DHT22;7019;50.766;4.474;2022-10-17T01:11:10;11.80;99.90
13898;DHT22;7019;50.766;4.474;2022-10-17T01:13:43;11.70;99.90
13898;DHT22;7019;50.766;4.474;2022-10-17T01:16:16;11.80;99.90
13898;DHT22;7019;50.766;4.474;2022-10-17T01:18:56;11.70;99.90
13898;DHT22;7019;50.766;4.474;2022-10-17T01:21:40;11.80;99.90
13898;DHT22;7019;50.766;4.474;2022-10-17T01:27:33;11.80;99.90
13898;DHT22;7019;50.766;4.474;2022-10-17T01:30:22;11.70;99.90
13898;DHT22;7019;50.766;4.474;2022-10-17T01:32:56;11.70;99.90
13898;DHT22;7019;50.766;4.474;2022-10-17T01:35:26;11.70;99.90
13898;DHT22;7019;50.766;4.474;2022-10-17T01:38:01;11.70;99.90
13898;DHT22;7019;50.766;4.474;2022-10-17T01:40:34;11.80;99.90
13898;DHT22;7019;50.766;4.474;2022-10-17T01:43:05;11.80;99.90
13898;DHT22;7019;50.766;4.474;2022-10-17T01:45:37;11.80;99.90
13898;DHT22;7019;50.766;4.474;2022-10-17T01:48:11;11.70;99.90
13898;DHT22;7019;50.766;4.474;2022-10-17T01:50:42;11.80;99.90
13898;DHT22;7019;50.766;4.474;2022-10-17T01:53:14;11.80;99.90
13898;DHT22;7019;50.766;4.474;2022-10-17T01:55:44;11.90;99.90
13898;DHT22;7019;50.766;4.474;2022-10-17T01:58:15;11.90;99.90
13898;DHT22;7019;50.766;4.474;2022-10-17T02:00:47;12.00;99.90
13898;DHT22;7019;50.766;4.474;2022-10-17T02:03:18;12.00;99.90
13898;DHT22;7019;50.766;4.474;2022-10-17T02:05:46;12.00;99.90
13898;DHT22;7019;50.766;4.474;2022-10-17T02:08:24;12.10;99.90
13898;DHT22;7019;50.766;4.474;2022-10-17T02:10:54;12.10;99.90
13898;DHT22;7019;50.766;4.474;2022-10-17T02:13:30;12.10;99.90
13898;DHT22;7019;50.766;4.474;2022-10-17T02:16:11;12.10;99.90
13898;DHT22;7019;50.766;4.474;2022-10-17T02:19:01;12.10;99.90
13898;DHT22;7019;50.766;4.474;2022-10-17T02:21:35;12.20;99.90
13898;DHT22;7019;50.766;4.474;2022-10-17T02:24:06;12.30;99.90
13898;DHT22;7019;50.766;4.474;2022-10-17T02:26:45;12.30;99.90
13898;DHT22;7019;50.766;4.474;2022-10-17T02:29:17;12.40;99.90
13898;DHT22;7019;50.766;4.474;2022-10-17T02:31:47;12.30;99.90
13898;DHT22;7019;50.766;4.474;2022-10-17T02:34:20;12.30;99.90
13898;DHT22;7019;50.766;4.474;2022-10-17T02:36:50;12.20;99.90
13898;DHT22;7019;50.766;4.474;2022-10-17T02:39:19;12.20;99.90
13898;DHT22;7019;50.766;4.474;2022-10-17T02:41:48;12.10;99.90
13898;DHT22;7019;50.766;4.474;2022-10-17T02:44:16;12.20;99.90
13898;DHT22;7019;50.766;4.474;2022-10-17T02:46:46;12.10;99.90
13898;DHT22;7019;50.766;4.474;2022-10-17T02:49:20;12.20;99.90
13898;DHT22;7019;50.766;4.474;2022-10-17T02:51:55;12.20;99.90
13898;DHT22;7019;50.766;4.474;2022-10-17T02:54:30;12.40;99.90
13898;DHT22;7019;50.766;4.474;2022-10-17T02:57:04;12.50;99.90
13898;DHT22;7019;50.766;4.474;2022-10-17T02:59:34;12.60;99.90
13898;DHT22;7019;50.766;4.474;2022-10-17T03:02:03;12.70;99.90
13898;DHT22;7019;50.766;4.474;2022-10-17T03:04:32;12.60;99.90
13898;DHT22;7019;50.766;4.474;2022-10-17T03:07:00;12.60;99.90
13898;DHT22;7019;50.766;4.474;2022-10-17T03:09:27;12.60;99.90
13898;DHT22;7019;50.766;4.474;2022-10-17T03:11:54;12.70;99.90
13898;DHT22;7019;50.766;4.474;2022-10-17T03:14:21;12.80;99.90
13898;DHT22;7019;50.766;4.474;2022-10-17T03:16:48;12.80;99.90
13898;DHT22;7019;50.766;4.474;2022-10-17T03:19:15;12.70;99.90
13898;DHT22;7019;50.766;4.474;2022-10-17T03:21:43;12.70;99.90
13898;DHT22;7019;50.766;4.474;2022-10-17T03:24:10;12.70;99.90
13898;DHT22;7019;50.766;4.474;2022-10-17T03:26:38;12.90;99.90
13898;DHT22;7019;50.766;4.474;2022-10-17T03:29:05;13.10;99.90
13898;DHT22;7019;50.766;4.474;2022-10-17T03:31:32;13.10;99.90
13898;DHT22;7019;50.766;4.474;2022-10-17T03:34:00;13.20;99.90
13898;DHT22;7019;50.766;4.474;2022-10-17T03:36:27;13.30;99.90
13898;DHT22;7019;50.766;4.474;2022-10-17T03:38:56;13.30;99.90
13898;DHT22;7019;50.766;4.474;2022-10-17T03:41:23;13.30;99.90
13898;DHT22;7019;50.766;4.474;2022-10-17T03:43:51;13.40;99.90
13898;DHT22;7019;50.766;4.474;2022-10-17T03:46:19;13.40;99.90
13898;DHT22;7019;50.766;4.474;2022-10-17T03:48:46;13.40;99.90
13898;DHT22;7019;50.766;4.474;2022-10-17T03:51:13;13.40;99.90
13898;DHT22;7019;50.766;4.474;2022-10-17T03:53:40;13.50;99.90
13898;DHT22;7019;50.766;4.474;2022-10-17T03:56:13;13.40;99.90
13898;DHT22;7019;50.766;4.474;2022-10-17T03:58:41;13.40;99.90
13898;DHT22;7019;50.766;4.474;2022-10-17T04:01:10;13.40;99.90
13898;DHT22;7019;50.766;4.474;2022-10-17T04:03:38;13.40;99.90
13898;DHT22;7019;50.766;4.474;2022-10-17T04:06:06;13.50;99.90
13898;DHT22;7019;50.766;4.474;2022-10-17T04:08:33;13.50;99.90
13898;DHT22;7019;50.766;4.474;2022-10-17T04:11:01;13.60;99.90
13898;DHT22;7019;50.766;4.474;2022-10-17T04:13:31;13.60;99.90
13898;DHT22;7019;50.766;4.474;2022-10-17T04:16:00;13.50;99.90
13898;DHT22;7019;50.766;4.474;2022-10-17T04:18:27;13.50;99.90
13898;DHT22;7019;50.766;4.474;2022-10-17T04:20:54;13.40;99.90
13898;DHT22;7019;50.766;4.474;2022-10-17T04:23:22;13.30;99.90
13898;DHT22;7019;50.766;4.474;2022-10-17T04:25:55;13.30;99.90
13898;DHT22;7019;50.766;4.474;2022-10-17T04:28:22;13.40;99.90
13898;DHT22;7019;50.766;4.474;2022-10-17T04:30:56;13.50;99.90
13898;DHT22;7019;50.766;4.474;2022-10-17T04:33:23;13.50;99.90
13898;DHT22;7019;50.766;4.474;2022-10-17T04:35:58;13.50;99.90
13898;DHT22;7019;50.766;4.474;2022-10-17T04:38:26;13.50;99.90
13898;DHT22;7019;50.766;4.474;2022-10-17T04:40:54;13.60;99.90
13898;DHT22;7019;50.766;4.474;2022-10-17T04:43:22;13.70;99.90
13898;DHT22;7019;50.766;4.474;2022-10-17T04:45:49;13.60;99.90
13898;DHT22;7019;50.766;4.474;2022-10-17T04:48:18;13.80;99.90
13898;DHT22;7019;50.766;4.474;2022-10-17T04:50:52;13.80;99.90
13898;DHT22;7019;50.766;4.474;2022-10-17T04:53:19;13.80;99.90
13898;DHT22;7019;50.766;4.474;2022-10-17T04:55:46;13.70;99.90
13898;DHT22;7019;50.766;4.474;2022-10-17T04:58:14;13.70;99.90
13898;DHT22;7019;50.766;4.474;2022-10-17T05:00:41;13.70;99.90
13898;DHT22;7019;50.766;4.474;2022-10-17T05:03:08;13.80;99.90
13898;DHT22;7019;50.766;4.474;2022-10-17T05:05:38;13.80;99.90
13898;DHT22;7019;50.766;4.474;2022-10-17T05:08:06;13.90;99.90
13898;DHT22;7019;50.766;4.474;2022-10-17T05:10:35;14.00;99.90
13898;DHT22;7019;50.766;4.474;2022-10-17T05:13:03;14.00;99.90
13898;DHT22;7019;50.766;4.474;2022-10-17T05:15:30;14.00;99.90
13898;DHT22;7019;50.766;4.474;2022-10-17T05:17:57;13.90;99.90
13898;DHT22;7019;50.766;4.474;2022-10-17T05:20:24;13.80;99.90
13898;DHT22;7019;50.766;4.474;2022-10-17T05:22:53;13.90;99.90
13898;DHT22;7019;50.766;4.474;2022-10-17T05:25:21;14.00;99.90
13898;DHT22;7019;50.766;4.474;2022-10-17T05:27:49;14.00;99.90
13898;DHT22;7019;50.766;4.474;2022-10-17T05:30:16;13.90;99.90
13898;DHT22;7019;50.766;4.474;2022-10-17T05:32:43;13.90;99.90
13898;DHT22;7019;50.766;4.474;2022-10-17T05:35:10;14.00;99.90
13898;DHT22;7019;50.766;4.474;2022-10-17T05:37:37;14.20;99.90
13898;DHT22;7019;50.766;4.474;2022-10-17T05:40:07;14.30;99.90
13898;DHT22;7019;50.766;4.474;2022-10-17T05:42:34;14.30;99.90
13898;DHT22;7019;50.766;4.474;2022-10-17T05:45:01;14.20;99.90
13898;DHT22;7019;50.766;4.474;2022-10-17T05:47:28;14.20;99.90
13898;DHT22;7019;50.766;4.474;2022-10-17T05:49:56;14.30;99.90
13898;DHT22;7019;50.766;4.474;2022-10-17T05:52:23;14.40;99.90
13898;DHT22;7019;50.766;4.474;2022-10-17T05:54:50;14.30;99.90
13898;DHT22;7019;50.766;4.474;2022-10-17T05:57:18;14.20;99.90
13898;DHT22;7019;50.766;4.474;2022-10-17T05:59:45;14.30;99.90
13898;DHT22;7019;50.766;4.474;2022-10-17T06:02:12;14.30;99.90
13898;DHT22;7019;50.766;4.474;2022-10-17T06:04:40;14.40;99.90
13898;DHT22;7019;50.766;4.474;2022-10-17T06:07:10;14.60;99.90
13898;DHT22;7019;50.766;4.474;2022-10-17T06:09:38;14.50;99.90
13898;DHT22;7019;50.766;4.474;2022-10-17T06:12:05;14.60;99.90
13898;DHT22;7019;50.766;4.474;2022-10-17T06:14:33;14.70;99.90
13898;DHT22;7019;50.766;4.474;2022-10-17T06:17:01;14.80;99.90
13898;DHT22;7019;50.766;4.474;2022-10-17T06:19:28;14.80;99.90
13898;DHT22;7019;50.766;4.474;2022-10-17T06:21:55;14.80;99.90
13898;DHT22;7019;50.766;4.474;2022-10-17T06:24:22;14.80;99.90
13898;DHT22;7019;50.766;4.474;2022-10-17T06:26:49;14.80;99.90
13898;DHT22;7019;50.766;4.474;2022-10-17T06:29:16;14.70;99.90
13898;DHT22;7019;50.766;4.474;2022-10-17T06:31:44;14.70;99.90
13898;DHT22;7019;50.766;4.474;2022-10-17T06:34:11;14.80;99.90
13898;DHT22;7019;50.766;4.474;2022-10-17T06:36:38;14.90;99.90
13898;DHT22;7019;50.766;4.474;2022-10-17T06:39:05;14.90;99.90
13898;DHT22;7019;50.766;4.474;2022-10-17T06:41:32;14.90;99.90
13898;DHT22;7019;50.766;4.474;2022-10-17T06:43:59;14.90;99.90
13898;DHT22;7019;50.766;4.474;2022-10-17T06:46:32;15.00;99.90
13898;DHT22;7019;50.766;4.474;2022-10-17T06:49:00;15.10;99.90
13898;DHT22;7019;50.766;4.474;2022-10-17T06:51:29;15.20;99.90
13898;DHT22;7019;50.766;4.474;2022-10-17T06:53:56;15.30;99.90
13898;DHT22;7019;50.766;4.474;2022-10-17T06:56:24;15.40;99.90
13898;DHT22;7019;50.766;4.474;2022-10-17T06:58:51;15.50;99.90
13898;DHT22;7019;50.766;4.474;2022-10-17T07:01:18;15.60;99.90
13898;DHT22;7019;50.766;4.474;2022-10-17T07:03:47;15.60;99.90
13898;DHT22;7019;50.766;4.474;2022-10-17T07:06:15;15.70;99.90
13898;DHT22;7019;50.766;4.474;2022-10-17T07:08:43;15.70;99.90
13898;DHT22;7019;50.766;4.474;2022-10-17T07:11:11;15.70;99.90
13898;DHT22;7019;50.766;4.474;2022-10-17T07:13:38;15.60;99.90
13898;DHT22;7019;50.766;4.474;2022-10-17T07:16:06;15.60;99.90
13898;DHT22;7019;50.766;4.474;2022-10-17T07:18:33;15.50;99.90
13898;DHT22;7019;50.766;4.474;2022-10-17T07:21:00;15.50;99.90
13898;DHT22;7019;50.766;4.474;2022-10-17T07:23:30;15.50;99.90
13898;DHT22;7019;50.766;4.474;2022-10-17T07:25:59;15.50;99.90
13898;DHT22;7019;50.766;4.474;2022-10-17T07:28:27;15.50;99.90
13898;DHT22;7019;50.766;4.474;2022-10-17T07:30:54;15.50;99.90
13898;DHT22;7019;50.766;4.474;2022-10-17T07:33:21;15.50;99.90
13898;DHT22;7019;50.766;4.474;2022-10-17T07:35:48;15.50;99.90
13898;DHT22;7019;50.766;4.474;2022-10-17T07:38:17;15.50;99.90
13898;DHT22;7019;50.766;4.474;2022-10-17T07:40:46;15.50;99.90
13898;DHT22;7019;50.766;4.474;2022-10-17T07:43:19;15.50;99.90
13898;DHT22;7019;50.766;4.474;2022-10-17T07:45:46;15.60;99.90
13898;DHT22;7019;50.766;4.474;2022-10-17T07:48:13;15.60;99.90
13898;DHT22;7019;50.766;4.474;2022-10-17T07:50:40;15.60;99.90
13898;DHT22;7019;50.766;4.474;2022-10-17T07:53:07;15.60;99.90
13898;DHT22;7019;50.766;4.474;2022-10-17T07:55:35;15.50;99.90
13898;DHT22;7019;50.766;4.474;2022-10-17T07:58:04;15.50;99.90
13898;DHT22;7019;50.766;4.474;2022-10-17T08:00:32;15.50;99.90
13898;DHT22;7019;50.766;4.474;2022-10-17T08:02:59;15.60;99.90
13898;DHT22;7019;50.766;4.474;2022-10-17T08:05:26;15.60;99.90
13898;DHT22;7019;50.766;4.474;2022-10-17T08:07:54;15.60;99.90
13898;DHT22;7019;50.766;4.474;2022-10-17T08:10:21;15.60;99.90
13898;DHT22;7019;50.766;4.474;2022-10-17T08:12:52;15.60;99.90
13898;DHT22;7019;50.766;4.474;2022-10-17T08:15:20;15.70;99.90
13898;DHT22;7019;50.766;4.474;2022-10-17T08:17:48;15.70;99.90
13898;DHT22;7019;50.766;4.474;2022-10-17T08:20:15;15.70;99.90
13898;DHT22;7019;50.766;4.474;2022-10-17T08:22:42;15.60;99.90
13898;DHT22;7019;50.766;4.474;2022-10-17T08:25:17;15.60;99.90
13898;DHT22;7019;50.766;4.474;2022-10-17T08:27:43;15.60;99.90
13898;DHT22;7019;50.766;4.474;2022-10-17T08:30:11;15.60;99.90
13898;DHT22;7019;50.766;4.474;2022-10-17T08:32:39;15.70;99.90
13898;DHT22;7019;50.766;4.474;2022-10-17T08:35:07;15.70;99.90
13898;DHT22;7019;50.766;4.474;2022-10-17T08:37:34;15.80;99.90
13898;DHT22;7019;50.766;4.474;2022-10-17T08:40:02;15.90;99.90
13898;DHT22;7019;50.766;4.474;2022-10-17T08:42:49;15.90;99.90
13898;DHT22;7019;50.766;4.474;2022-10-17T08:45:23;15.90;99.90
13898;DHT22;7019;50.766;4.474;2022-10-17T08:47:58;16.00;99.90
13898;DHT22;7019;50.766;4.474;2022-10-17T08:50:31;16.00;99.90
13898;DHT22;7019;50.766;4.474;2022-10-17T08:53:03;16.00;99.90
13898;DHT22;7019;50.766;4.474;2022-10-17T08:55:36;16.00;99.90
13898;DHT22;7019;50.766;4.474;2022-10-17T08:58:12;16.10;99.90
13898;DHT22;7019;50.766;4.474;2022-10-17T09:00:42;16.10;99.90
13898;DHT22;7019;50.766;4.474;2022-10-17T09:06:17;16.10;99.90
13898;DHT22;7019;50.766;4.474;2022-10-17T09:08:53;16.10;99.90
13898;DHT22;7019;50.766;4.474;2022-10-17T09:11:35;16.10;99.90
13898;DHT22;7019;50.766;4.474;2022-10-17T09:14:18;16.10;99.90
13898;DHT22;7019;50.766;4.474;2022-10-17T09:17:06;16.10;99.90
13898;DHT22;7019;50.766;4.474;2022-10-17T09:19:38;16.10;99.90
13898;DHT22;7019;50.766;4.474;2022-10-17T09:22:08;16.00;99.90
13898;DHT22;7019;50.766;4.474;2022-10-17T09:24:40;16.10;99.90
13898;DHT22;7019;50.766;4.474;2022-10-17T09:27:22;16.10;99.90
13898;DHT22;7019;50.766;4.474;2022-10-17T09:29:57;16.20;99.90
13898;DHT22;7019;50.766;4.474;2022-10-17T09:32:27;16.20;99.90
13898;DHT22;7019;50.766;4.474;2022-10-17T09:34:56;16.20;99.90
13898;DHT22;7019;50.766;4.474;2022-10-17T09:37:29;16.10;99.90
13898;DHT22;7019;50.766;4.474;2022-10-17T09:39:57;16.10;99.90
13898;DHT22;7019;50.766;4.474;2022-10-17T09:42:25;16.20;99.90
13898;DHT22;7019;50.766;4.474;2022-10-17T09:44:57;16.20;99.90
13898;DHT22;7019;50.766;4.474;2022-10-17T09:47:33;16.30;99.90
13898;DHT22;7019;50.766;4.474;2022-10-17T09:50:09;16.30;99.90
13898;DHT22;7019;50.766;4.474;2022-10-17T09:52:42;16.40;99.90
13898;DHT22;7019;50.766;4.474;2022-10-17T09:55:17;16.40;99.90
13898;DHT22;7019;50.766;4.474;2022-10-17T09:57:56;16.50;99.90
13898;DHT22;7019;50.766;4.474;2022-10-17T10:00:27;16.50;99.90
13898;DHT22;7019;50.766;4.474;2022-10-17T10:03:16;16.50;99.90
13898;DHT22;7019;50.766;4.474;2022-10-17T10:06:00;16.60;99.90
13898;DHT22;7019;50.766;4.474;2022-10-17T10:08:29;16.70;99.90
13898;DHT22;7019;50.766;4.474;2022-10-17T10:10:59;16.80;99.90
13898;DHT22;7019;50.766;4.474;2022-10-17T10:13:28;16.80;99.90
13898;DHT22;7019;50.766;4.474;2022-10-17T10:16:13;16.80;99.90
13898;DHT22;7019;50.766;4.474;2022-10-17T10:18:40;17.00;99.90
13898;DHT22;7019;50.766;4.474;2022-10-17T10:21:11;17.00;99.90
13898;DHT22;7019;50.766;4.474;2022-10-17T10:23:39;17.10;99.90
13898;DHT22;7019;50.766;4.474;2022-10-17T10:26:25;17.10;99.90
13898;DHT22;7019;50.766;4.474;2022-10-17T10:29:01;17.10;99.90
13898;DHT22;7019;50.766;4.474;2022-10-17T10:31:33;17.10;99.90
13898;DHT22;7019;50.766;4.474;2022-10-17T10:34:11;17.20;99.90
13898;DHT22;7019;50.766;4.474;2022-10-17T10:36:50;17.40;99.90
13898;DHT22;7019;50.766;4.474;2022-10-17T10:39:35;17.40;99.90
13898;DHT22;7019;50.766;4.474;2022-10-17T10:42:05;17.50;99.90
13898;DHT22;7019;50.766;4.474;2022-10-17T10:44:36;17.50;99.90
13898;DHT22;7019;50.766;4.474;2022-10-17T10:47:15;17.50;99.90
13898;DHT22;7019;50.766;4.474;2022-10-17T10:49:43;17.60;99.90
13898;DHT22;7019;50.766;4.474;2022-10-17T10:52:18;17.60;99.90
13898;DHT22;7019;50.766;4.474;2022-10-17T10:54:58;17.60;99.90
13898;DHT22;7019;50.766;4.474;2022-10-17T10:57:32;17.50;99.90
13898;DHT22;7019;50.766;4.474;2022-10-17T11:00:05;17.40;99.90
13898;DHT22;7019;50.766;4.474;2022-10-17T11:02:37;17.40;99.90
13898;DHT22;7019;50.766;4.474;2022-10-17T11:05:11;17.30;99.90
13898;DHT22;7019;50.766;4.474;2022-10-17T11:07:42;17.20;99.90
13898;DHT22;7019;50.766;4.474;2022-10-17T11:10:16;17.10;99.90
13898;DHT22;7019;50.766;4.474;2022-10-17T11:12:49;17.10;99.90
13898;DHT22;7019;50.766;4.474;2022-10-17T11:15:23;17.10;99.90
13898;DHT22;7019;50.766;4.474;2022-10-17T11:17:55;17.10;99.90
13898;DHT22;7019;50.766;4.474;2022-10-17T11:20:33;17.10;99.90
13898;DHT22;7019;50.766;4.474;2022-10-17T11:23:13;17.10;99.90
13898;DHT22;7019;50.766;4.474;2022-10-17T11:25:45;17.20;99.90
13898;DHT22;7019;50.766;4.474;2022-10-17T11:28:15;17.30;99.90
13898;DHT22;7019;50.766;4.474;2022-10-17T11:30:49;17.30;99.90
13898;DHT22;7019;50.766;4.474;2022-10-17T11:33:26;17.30;99.90
13898;DHT22;7019;50.766;4.474;2022-10-17T11:36:00;17.30;99.90
13898;DHT22;7019;50.766;4.474;2022-10-17T11:38:38;17.30;99.90
13898;DHT22;7019;50.766;4.474;2022-10-17T11:41:11;17.20;99.90
13898;DHT22;7019;50.766;4.474;2022-10-17T11:43:44;17.20;99.90
13898;DHT22;7019;50.766;4.474;2022-10-17T11:46:16;17.20;99.90
13898;DHT22;7019;50.766;4.474;2022-10-17T11:48:59;17.30;99.90
13898;DHT22;7019;50.766;4.474;2022-10-17T11:51:30;17.30;99.90
13898;DHT22;7019;50.766;4.474;2022-10-17T11:54:10;17.40;99.90
13898;DHT22;7019;50.766;4.474;2022-10-17T11:56:43;17.40;99.90
13898;DHT22;7019;50.766;4.474;2022-10-17T11:59:40;17.50;99.90
13898;DHT22;7019;50.766;4.474;2022-10-17T12:02:15;17.50;99.90
13898;DHT22;7019;50.766;4.474;2022-10-17T12:04:55;17.60;99.90
13898;DHT22;7019;50.766;4.474;2022-10-17T12:07:28;17.60;99.90
13898;DHT22;7019;50.766;4.474;2022-10-17T12:10:06;17.60;99.90
13898;DHT22;7019;50.766;4.474;2022-10-17T12:12:40;17.60;99.90
13898;DHT22;7019;50.766;4.474;2022-10-17T12:15:26;17.60;99.90
13898;DHT22;7019;50.766;4.474;2022-10-17T12:17:54;17.60;99.90
13898;DHT22;7019;50.766;4.474;2022-10-17T12:20:31;17.60;99.90
13898;DHT22;7019;50.766;4.474;2022-10-17T12:23:16;17.50;99.90
13898;DHT22;7019;50.766;4.474;2022-10-17T12:25:51;17.50;99.90
13898;DHT22;7019;50.766;4.474;2022-10-17T12:28:25;17.50;99.90
13898;DHT22;7019;50.766;4.474;2022-10-17T12:30:58;17.50;99.90
13898;DHT22;7019;50.766;4.474;2022-10-17T12:33:32;17.50;99.90
13898;DHT22;7019;50.766;4.474;2022-10-17T12:42:46;17.50;99.90
13898;DHT22;7019;50.766;4.474;2022-10-17T12:45:48;17.60;99.90
13898;DHT22;7019;50.766;4.474;2022-10-17T12:51:20;17.70;99.90
13898;DHT22;7019;50.766;4.474;2022-10-17T12:53:55;17.80;99.90
13898;DHT22;7019;50.766;4.474;2022-10-17T12:56:31;17.70;99.90
13898;DHT22;7019;50.766;4.474;2022-10-17T12:59:06;17.70;99.90
13898;DHT22;7019;50.766;4.474;2022-10-17T13:01:36;17.70;99.90
13898;DHT22;7019;50.766;4.474;2022-10-17T13:04:08;17.70;99.90
13898;DHT22;7019;50.766;4.474;2022-10-17T13:06:38;17.70;99.90
13898;DHT22;7019;50.766;4.474;2022-10-17T13:09:08;17.80;99.90
13898;DHT22;7019;50.766;4.474;2022-10-17T13:11:41;17.80;99.90
13898;DHT22;7019;50.766;4.474;2022-10-17T13:14:11;17.80;99.90
13898;DHT22;7019;50.766;4.474;2022-10-17T13:16:49;17.80;99.90
13898;DHT22;7019;50.766;4.474;2022-10-17T13:19:21;17.80;99.90
13898;DHT22;7019;50.766;4.474;2022-10-17T13:21:49;17.90;99.90
13898;DHT22;7019;50.766;4.474;2022-10-17T13:24:21;17.90;99.90
13898;DHT22;7019;50.766;4.474;2022-10-17T13:26:48;18.00;99.90
13898;DHT22;7019;50.766;4.474;2022-10-17T13:29:17;18.00;99.90
13898;DHT22;7019;50.766;4.474;2022-10-17T13:31:51;18.00;99.90
13898;DHT22;7019;50.766;4.474;2022-10-17T13:34:19;18.00;99.90
13898;DHT22;7019;50.766;4.474;2022-10-17T13:36:49;18.00;99.90
13898;DHT22;7019;50.766;4.474;2022-10-17T13:39:21;18.00;99.90
13898;DHT22;7019;50.766;4.474;2022-10-17T13:41:49;18.00;99.90
13898;DHT22;7019;50.766;4.474;2022-10-17T13:44:19;18.00;99.90
13898;DHT22;7019;50.766;4.474;2022-10-17T13:46:47;18.10;99.90
13898;DHT22;7019;50.766;4.474;2022-10-17T13:49:18;18.10;99.90
13898;DHT22;7019;50.766;4.474;2022-10-17T13:51:49;18.00;99.90
13898;DHT22;7019;50.766;4.474;2022-10-17T13:54:35;18.00;99.90
13898;DHT22;7019;50.766;4.474;2022-10-17T13:57:18;18.00;99.90
13898;DHT22;7019;50.766;4.474;2022-10-17T13:59:53;17.90;99.90
13898;DHT22;7019;50.766;4.474;2022-10-17T14:02:23;17.80;99.90
13898;DHT22;7019;50.766;4.474;2022-10-17T14:05:10;17.80;99.90
13898;DHT22;7019;50.766;4.474;2022-10-17T14:07:40;17.70;99.90
13898;DHT22;7019;50.766;4.474;2022-10-17T14:10:17;17.80;99.90
13898;DHT22;7019;50.766;4.474;2022-10-17T14:12:45;17.70;99.90
13898;DHT22;7019;50.766;4.474;2022-10-17T14:15:14;17.60;99.90
13898;DHT22;7019;50.766;4.474;2022-10-17T14:17:43;17.60;99.90
13898;DHT22;7019;50.766;4.474;2022-10-17T14:20:17;17.60;99.90
13898;DHT22;7019;50.766;4.474;2022-10-17T14:22:46;17.50;99.90
13898;DHT22;7019;50.766;4.474;2022-10-17T14:25:28;17.50;99.90
13898;DHT22;7019;50.766;4.474;2022-10-17T14:28:00;17.40;99.90
13898;DHT22;7019;50.766;4.474;2022-10-17T14:30:37;17.50;99.90
13898;DHT22;7019;50.766;4.474;2022-10-17T14:33:06;17.50;99.90
13898;DHT22;7019;50.766;4.474;2022-10-17T14:35:34;17.50;99.90
13898;DHT22;7019;50.766;4.474;2022-10-17T14:38:03;17.50;99.90
13898;DHT22;7019;50.766;4.474;2022-10-17T14:40:32;17.60;99.90
13898;DHT22;7019;50.766;4.474;2022-10-17T14:43:04;17.60;99.90
13898;DHT22;7019;50.766;4.474;2022-10-17T14:45:34;17.60;99.90
13898;DHT22;7019;50.766;4.474;2022-10-17T14:48:03;17.60;99.90
13898;DHT22;7019;50.766;4.474;2022-10-17T14:50:32;17.60;99.90
13898;DHT22;7019;50.766;4.474;2022-10-17T14:53:03;17.60;99.90
13898;DHT22;7019;50.766;4.474;2022-10-17T14:55:32;17.60;99.90
13898;DHT22;7019;50.766;4.474;2022-10-17T14:58:00;17.60;99.90
13898;DHT22;7019;50.766;4.474;2022-10-17T15:00:27;17.60;99.90
13898;DHT22;7019;50.766;4.474;2022-10-17T15:02:56;17.50;99.90
13898;DHT22;7019;50.766;4.474;2022-10-17T15:05:23;17.50;99.90
13898;DHT22;7019;50.766;4.474;2022-10-17T15:07:50;17.40;99.90
13898;DHT22;7019;50.766;4.474;2022-10-17T15:10:36;17.40;99.90
13898;DHT22;7019;50.766;4.474;2022-10-17T15:13:06;17.40;99.90
13898;DHT22;7019;50.766;4.474;2022-10-17T15:15:34;17.40;99.90
13898;DHT22;7019;50.766;4.474;2022-10-17T15:18:03;17.30;99.90
13898;DHT22;7019;50.766;4.474;2022-10-17T15:20:31;17.30;99.90
13898;DHT22;7019;50.766;4.474;2022-10-17T15:23:00;17.20;99.90
13898;DHT22;7019;50.766;4.474;2022-10-17T15:25:29;17.20;99.90
13898;DHT22;7019;50.766;4.474;2022-10-17T15:27:57;17.10;99.90
13898;DHT22;7019;50.766;4.474;2022-10-17T15:30:27;17.10;99.90
13898;DHT22;7019;50.766;4.474;2022-10-17T15:32:55;17.00;99.90
13898;DHT22;7019;50.766;4.474;2022-10-17T15:35:24;17.00;99.90
13898;DHT22;7019;50.766;4.474;2022-10-17T15:37:51;16.90;99.90
13898;DHT22;7019;50.766;4.474;2022-10-17T15:40:20;16.90;99.90
13898;DHT22;7019;50.766;4.474;2022-10-17T15:42:48;16.90;99.90
13898;DHT22;7019;50.766;4.474;2022-10-17T15:45:17;16.80;99.90
13898;DHT22;7019;50.766;4.474;2022-10-17T15:47:50;16.80;99.90
13898;DHT22;7019;50.766;4.474;2022-10-17T15:50:19;16.80;99.90
13898;DHT22;7019;50.766;4.474;2022-10-17T15:52:48;16.70;99.90
13898;DHT22;7019;50.766;4.474;2022-10-17T15:55:17;16.70;99.90
13898;DHT22;7019;50.766;4.474;2022-10-17T15:57:46;16.60;99.90
13898;DHT22;7019;50.766;4.474;2022-10-17T16:00:16;16.60;99.90
13898;DHT22;7019;50.766;4.474;2022-10-17T16:02:45;16.50;99.90
13898;DHT22;7019;50.766;4.474;2022-10-17T16:05:14;16.50;99.90
13898;DHT22;7019;50.766;4.474;2022-10-17T16:07:41;16.40;99.90
13898;DHT22;7019;50.766;4.474;2022-10-17T16:10:12;16.40;99.90
13898;DHT22;7019;50.766;4.474;2022-10-17T16:12:39;16.40;99.90
13898;DHT22;7019;50.766;4.474;2022-10-17T16:15:08;16.30;99.90
13898;DHT22;7019;50.766;4.474;2022-10-17T16:17:39;16.30;99.90
13898;DHT22;7019;50.766;4.474;2022-10-17T16:20:07;16.30;99.90
13898;DHT22;7019;50.766;4.474;2022-10-17T16:22:34;16.20;99.90
13898;DHT22;7019;50.766;4.474;2022-10-17T16:25:02;16.20;99.90